sensor_id;sensor_type;location;lat;lon;timestamp;temperature;humidity
59301;DHT22;45073;52.740;6.784;2023-05-17T00:00:50;10.20;99.90
59301;DHT22;45073;52.740;6.784;2023-05-17T00:03:16;10.20;99.90
59301;DHT22;45073;52.740;6.784;2023-05-17T00:05:41;10.20;99.90
59301;DHT22;45073;52.740;6.784;2023-05-17T00:08:07;10.20;99.90
59301;DHT22;45073;52.740;6.784;2023-05-17T00:10:32;10.20;99.90
59301;DHT22;45073;52.740;6.784;2023-05-17T00:12:58;10.10;99.90
59301;DHT22;45073;52.740;6.784;2023-05-17T00:15:24;10.10;99.90
59301;DHT22;45073;52.740;6.784;2023-05-17T00:17:49;10.10;99.90
59301;DHT22;45073;52.740;6.784;2023-05-17T00:20:16;10.10;99.90
59301;DHT22;45073;52.740;6.784;2023-05-17T00:22:41;10.10;99.90
59301;DHT22;45073;52.740;6.784;2023-05-17T00:25:10;10.10;99.90
59301;DHT22;45073;52.740;6.784;2023-05-17T00:27:35;10.10;99.90
59301;DHT22;45073;52.740;6.784;2023-05-17T00:30:01;10.10;99.90
59301;DHT22;45073;52.740;6.784;2023-05-17T00:32:27;10.10;99.90
59301;DHT22;45073;52.740;6.784;2023-05-17T00:34:52;10.10;99.90
59301;DHT22;45073;52.740;6.784;2023-05-17T00:37:18;10.20;99.90
59301;DHT22;45073;52.740;6.784;2023-05-17T00:39:43;10.20;99.90
59301;DHT22;45073;52.740;6.784;2023-05-17T00:42:10;10.10;99.90
59301;DHT22;45073;52.740;6.784;2023-05-17T00:44:35;10.20;99.90
59301;DHT22;45073;52.740;6.784;2023-05-17T00:47:01;10.10;99.90
59301;DHT22;45073;52.740;6.784;2023-05-17T00:49:27;10.10;99.90
59301;DHT22;45073;52.740;6.784;2023-05-17T00:51:54;10.00;99.90
59301;DHT22;45073;52.740;6.784;2023-05-17T00:54:20;10.00;99.90
59301;DHT22;45073;52.740;6.784;2023-05-17T00:56:46;10.00;99.90
59301;DHT22;45073;52.740;6.784;2023-05-17T00:59:13;9.90;99.90
59301;DHT22;45073;52.740;6.784;2023-05-17T01:01:42;9.90;99.90
59301;DHT22;45073;52.740;6.784;2023-05-17T01:04:09;9.80;99.90
59301;DHT22;45073;52.740;6.784;2023-05-17T01:06:35;9.80;99.90
59301;DHT22;45073;52.740;6.784;2023-05-17T01:09:02;9.70;99.90
59301;DHT22;45073;52.740;6.784;2023-05-17T01:11:49;9.60;99.90
59301;DHT22;45073;52.740;6.784;2023-05-17T01:15:02;9.60;99.90
59301;DHT22;45073;52.740;6.784;2023-05-17T01:20:42;9.50;99.90
59301;DHT22;45073;52.740;6.784;2023-05-17T01:26:18;9.40;99.90
59301;DHT22;45073;52.740;6.784;2023-05-17T01:28:52;9.30;99.90
59301;DHT22;45073;52.740;6.784;2023-05-17T01:31:19;9.20;99.90
59301;DHT22;45073;52.740;6.784;2023-05-17T01:33:45;9.10;99.90
59301;DHT22;45073;52.740;6.784;2023-05-17T01:36:11;9.00;99.90
59301;DHT22;45073;52.740;6.784;2023-05-17T01:38:36;9.00;99.90
59301;DHT22;45073;52.740;6.784;2023-05-17T01:41:14;9.00;99.90
59301;DHT22;45073;52.740;6.784;2023-05-17T01:43:58;9.00;99.90
59301;DHT22;45073;52.740;6.784;2023-05-17T01:47:04;8.90;99.90
59301;DHT22;45073;52.740;6.784;2023-05-17T01:49:34;8.90;99.90
59301;DHT22;45073;52.740;6.784;2023-05-17T01:55:02;8.90;99.90
59301;DHT22;45073;52.740;6.784;2023-05-17T01:57:32;8.90;99.90
59301;DHT22;45073;52.740;6.784;2023-05-17T01:59:59;9.00;99.90
59301;DHT22;45073;52.740;6.784;2023-05-17T02:02:26;9.00;99.90
59301;DHT22;45073;52.740;6.784;2023-05-17T02:04:52;9.00;99.90
59301;DHT22;45073;52.740;6.784;2023-05-17T02:07:19;9.00;99.90
59301;DHT22;45073;52.740;6.784;2023-05-17T02:09:44;9.10;99.90
59301;DHT22;45073;52.740;6.784;2023-05-17T02:12:10;9.10;99.90
59301;DHT22;45073;52.740;6.784;2023-05-17T02:14:35;9.10;99.90
59301;DHT22;45073;52.740;6.784;2023-05-17T02:17:01;9.10;99.90
59301;DHT22;45073;52.740;6.784;2023-05-17T02:19:30;9.10;99.90
59301;DHT22;45073;52.740;6.784;2023-05-17T02:21:56;9.10;99.90
59301;DHT22;45073;52.740;6.784;2023-05-17T02:24:21;9.10;99.90
59301;DHT22;45073;52.740;6.784;2023-05-17T02:26:47;9.10;99.90
59301;DHT22;45073;52.740;6.784;2023-05-17T02:29:13;9.00;99.90
59301;DHT22;45073;52.740;6.784;2023-05-17T02:31:39;9.00;99.90
59301;DHT22;45073;52.740;6.784;2023-05-17T02:34:04;9.00;99.90
59301;DHT22;45073;52.740;6.784;2023-05-17T02:36:30;9.00;99.90
59301;DHT22;45073;52.740;6.784;2023-05-17T02:38:57;9.00;99.90
59301;DHT22;45073;52.740;6.784;2023-05-17T02:41:22;8.90;99.90
59301;DHT22;45073;52.740;6.784;2023-05-17T02:43:48;9.00;99.90
59301;DHT22;45073;52.740;6.784;2023-05-17T02:46:13;8.90;99.90
59301;DHT22;45073;52.740;6.784;2023-05-17T02:48:39;8.90;99.90
59301;DHT22;45073;52.740;6.784;2023-05-17T02:51:05;8.90;99.90
59301;DHT22;45073;52.740;6.784;2023-05-17T02:53:30;8.90;99.90
59301;DHT22;45073;52.740;6.784;2023-05-17T02:55:56;8.90;99.90
59301;DHT22;45073;52.740;6.784;2023-05-17T02:58:24;8.80;99.90
59301;DHT22;45073;52.740;6.784;2023-05-17T03:00:50;8.80;99.90
59301;DHT22;45073;52.740;6.784;2023-05-17T03:03:16;8.70;99.90
59301;DHT22;45073;52.740;6.784;2023-05-17T03:05:42;8.70;99.90
59301;DHT22;45073;52.740;6.784;2023-05-17T03:08:08;8.70;99.90
59301;DHT22;45073;52.740;6.784;2023-05-17T03:10:33;8.60;99.90
59301;DHT22;45073;52.740;6.784;2023-05-17T03:12:59;8.60;99.90
59301;DHT22;45073;52.740;6.784;2023-05-17T03:15:25;8.50;99.90
59301;DHT22;45073;52.740;6.784;2023-05-17T03:17:54;8.50;99.90
59301;DHT22;45073;52.740;6.784;2023-05-17T03:20:20;8.50;99.90
59301;DHT22;45073;52.740;6.784;2023-05-17T03:22:46;8.40;99.90
59301;DHT22;45073;52.740;6.784;2023-05-17T03:25:11;8.40;99.90
59301;DHT22;45073;52.740;6.784;2023-05-17T03:27:37;8.40;99.90
59301;DHT22;45073;52.740;6.784;2023-05-17T03:30:03;8.40;99.90
59301;DHT22;45073;52.740;6.784;2023-05-17T03:32:29;8.30;99.90
59301;DHT22;45073;52.740;6.784;2023-05-17T03:34:54;8.30;99.90
59301;DHT22;45073;52.740;6.784;2023-05-17T03:37:20;8.20;99.90
59301;DHT22;45073;52.740;6.784;2023-05-17T03:39:46;8.20;99.90
59301;DHT22;45073;52.740;6.784;2023-05-17T03:42:11;8.20;99.90
59301;DHT22;45073;52.740;6.784;2023-05-17T03:44:37;8.20;99.90
59301;DHT22;45073;52.740;6.784;2023-05-17T03:47:02;8.10;99.90
59301;DHT22;45073;52.740;6.784;2023-05-17T03:49:28;8.10;99.90
59301;DHT22;45073;52.740;6.784;2023-05-17T03:51:54;8.10;99.90
59301;DHT22;45073;52.740;6.784;2023-05-17T03:54:19;8.00;99.90
59301;DHT22;45073;52.740;6.784;2023-05-17T03:56:45;8.00;99.90
59301;DHT22;45073;52.740;6.784;2023-05-17T03:59:13;8.00;99.90
59301;DHT22;45073;52.740;6.784;2023-05-17T04:01:39;8.00;99.90
59301;DHT22;45073;52.740;6.784;2023-05-17T04:04:04;8.00;99.90
59301;DHT22;45073;52.740;6.784;2023-05-17T04:06:31;8.00;99.90
59301;DHT22;45073;52.740;6.784;2023-05-17T04:08:57;8.10;99.90
59301;DHT22;45073;52.740;6.784;2023-05-17T04:11:24;8.10;99.90
59301;DHT22;45073;52.740;6.784;2023-05-17T04:13:52;8.10;99.90
59301;DHT22;45073;52.740;6.784;2023-05-17T04:16:18;8.20;99.90
59301;DHT22;45073;52.740;6.784;2023-05-17T04:18:44;8.20;99.90
59301;DHT22;45073;52.740;6.784;2023-05-17T04:21:10;8.20;99.90
59301;DHT22;45073;52.740;6.784;2023-05-17T04:23:36;8.20;99.90
59301;DHT22;45073;52.740;6.784;2023-05-17T04:26:02;8.20;99.90
59301;DHT22;45073;52.740;6.784;2023-05-17T04:28:29;8.20;99.90
59301;DHT22;45073;52.740;6.784;2023-05-17T04:30:55;8.30;99.90
59301;DHT22;45073;52.740;6.784;2023-05-17T04:33:20;8.30;99.90
59301;DHT22;45073;52.740;6.784;2023-05-17T04:35:46;8.40;99.90
59301;DHT22;45073;52.740;6.784;2023-05-17T04:38:12;8.40;99.90
59301;DHT22;45073;52.740;6.784;2023-05-17T04:40:38;8.40;99.90
59301;DHT22;45073;52.740;6.784;2023-05-17T04:43:03;8.50;99.90
59301;DHT22;45073;52.740;6.784;2023-05-17T04:45:29;8.50;99.90
59301;DHT22;45073;52.740;6.784;2023-05-17T04:47:55;8.50;99.90
59301;DHT22;45073;52.740;6.784;2023-05-17T04:50:21;8.60;99.90
59301;DHT22;45073;52.740;6.784;2023-05-17T04:52:46;8.60;99.90
59301;DHT22;45073;52.740;6.784;2023-05-17T04:55:12;8.60;99.90
59301;DHT22;45073;52.740;6.784;2023-05-17T04:57:38;8.70;99.90
59301;DHT22;45073;52.740;6.784;2023-05-17T05:00:04;8.80;99.90
59301;DHT22;45073;52.740;6.784;2023-05-17T05:02:34;8.80;99.90
59301;DHT22;45073;52.740;6.784;2023-05-17T05:05:01;8.80;99.90
59301;DHT22;45073;52.740;6.784;2023-05-17T05:07:26;8.90;99.90
59301;DHT22;45073;52.740;6.784;2023-05-17T05:09:52;8.90;99.90
59301;DHT22;45073;52.740;6.784;2023-05-17T05:12:18;8.90;99.90
59301;DHT22;45073;52.740;6.784;2023-05-17T05:14:43;8.90;99.90
59301;DHT22;45073;52.740;6.784;2023-05-17T05:17:09;9.00;99.90
59301;DHT22;45073;52.740;6.784;2023-05-17T05:19:34;9.00;99.90
59301;DHT22;45073;52.740;6.784;2023-05-17T05:22:00;9.10;99.90
59301;DHT22;45073;52.740;6.784;2023-05-17T05:24:26;9.20;99.90
59301;DHT22;45073;52.740;6.784;2023-05-17T05:26:51;9.30;99.90
59301;DHT22;45073;52.740;6.784;2023-05-17T05:29:17;9.40;99.90
59301;DHT22;45073;52.740;6.784;2023-05-17T05:31:43;9.50;99.90
59301;DHT22;45073;52.740;6.784;2023-05-17T05:34:09;9.50;99.90
59301;DHT22;45073;52.740;6.784;2023-05-17T05:36:35;9.60;99.90
59301;DHT22;45073;52.740;6.784;2023-05-17T05:39:01;9.70;99.90
59301;DHT22;45073;52.740;6.784;2023-05-17T05:41:26;9.70;99.90
59301;DHT22;45073;52.740;6.784;2023-05-17T05:43:52;9.70;99.90
59301;DHT22;45073;52.740;6.784;2023-05-17T05:46:18;9.80;99.90
59301;DHT22;45073;52.740;6.784;2023-05-17T05:48:43;9.70;99.90
59301;DHT22;45073;52.740;6.784;2023-05-17T05:51:09;9.70;99.90
59301;DHT22;45073;52.740;6.784;2023-05-17T05:53:35;9.70;99.90
59301;DHT22;45073;52.740;6.784;2023-05-17T05:56:01;9.80;99.90
59301;DHT22;45073;52.740;6.784;2023-05-17T05:58:28;9.80;99.90
59301;DHT22;45073;52.740;6.784;2023-05-17T06:00:54;9.80;99.90
59301;DHT22;45073;52.740;6.784;2023-05-17T06:03:20;9.90;99.90
59301;DHT22;45073;52.740;6.784;2023-05-17T06:05:45;9.90;99.90
59301;DHT22;45073;52.740;6.784;2023-05-17T06:08:11;10.00;99.90
59301;DHT22;45073;52.740;6.784;2023-05-17T06:10:37;10.10;99.90
59301;DHT22;45073;52.740;6.784;2023-05-17T06:13:02;10.10;99.90
59301;DHT22;45073;52.740;6.784;2023-05-17T06:15:30;10.20;99.90
59301;DHT22;45073;52.740;6.784;2023-05-17T06:17:56;10.30;99.90
59301;DHT22;45073;52.740;6.784;2023-05-17T06:20:21;10.30;99.90
59301;DHT22;45073;52.740;6.784;2023-05-17T06:22:47;10.40;99.90
59301;DHT22;45073;52.740;6.784;2023-05-17T06:25:12;10.50;99.90
59301;DHT22;45073;52.740;6.784;2023-05-17T06:27:38;10.50;99.90
59301;DHT22;45073;52.740;6.784;2023-05-17T06:30:04;10.60;99.90
59301;DHT22;45073;52.740;6.784;2023-05-17T06:32:30;10.70;99.90
59301;DHT22;45073;52.740;6.784;2023-05-17T06:34:56;10.80;99.90
59301;DHT22;45073;52.740;6.784;2023-05-17T06:37:22;11.00;99.90
59301;DHT22;45073;52.740;6.784;2023-05-17T06:39:50;11.00;99.90
59301;DHT22;45073;52.740;6.784;2023-05-17T06:42:16;11.00;97.00
59301;DHT22;45073;52.740;6.784;2023-05-17T06:44:42;11.00;96.70
59301;DHT22;45073;52.740;6.784;2023-05-17T06:47:07;10.90;95.80
59301;DHT22;45073;52.740;6.784;2023-05-17T06:49:33;10.90;95.30
59301;DHT22;45073;52.740;6.784;2023-05-17T06:51:59;10.90;95.20
59301;DHT22;45073;52.740;6.784;2023-05-17T06:54:28;11.00;95.40
59301;DHT22;45073;52.740;6.784;2023-05-17T06:56:58;11.00;94.50
59301;DHT22;45073;52.740;6.784;2023-05-17T06:59:23;11.00;93.30
59301;DHT22;45073;52.740;6.784;2023-05-17T07:01:49;11.10;93.80
59301;DHT22;45073;52.740;6.784;2023-05-17T07:04:15;11.20;94.10
59301;DHT22;45073;52.740;6.784;2023-05-17T07:06:40;11.30;93.60
59301;DHT22;45073;52.740;6.784;2023-05-17T07:09:06;11.30;93.60
59301;DHT22;45073;52.740;6.784;2023-05-17T07:11:32;11.40;93.50
59301;DHT22;45073;52.740;6.784;2023-05-17T07:13:57;11.50;92.80
59301;DHT22;45073;52.740;6.784;2023-05-17T07:16:23;11.50;92.40
59301;DHT22;45073;52.740;6.784;2023-05-17T07:18:49;11.50;92.00
59301;DHT22;45073;52.740;6.784;2023-05-17T07:21:14;11.50;91.40
59301;DHT22;45073;52.740;6.784;2023-05-17T07:23:40;11.50;90.80
59301;DHT22;45073;52.740;6.784;2023-05-17T07:26:06;11.40;90.20
59301;DHT22;45073;52.740;6.784;2023-05-17T07:28:31;11.50;90.30
59301;DHT22;45073;52.740;6.784;2023-05-17T07:30:57;11.40;88.30
59301;DHT22;45073;52.740;6.784;2023-05-17T07:33:22;11.50;88.90
59301;DHT22;45073;52.740;6.784;2023-05-17T07:35:48;11.50;89.20
59301;DHT22;45073;52.740;6.784;2023-05-17T07:38:13;11.60;88.60
59301;DHT22;45073;52.740;6.784;2023-05-17T07:40:39;11.60;88.10
59301;DHT22;45073;52.740;6.784;2023-05-17T07:43:05;11.60;87.60
59301;DHT22;45073;52.740;6.784;2023-05-17T07:45:30;11.60;87.90
59301;DHT22;45073;52.740;6.784;2023-05-17T07:47:56;11.60;87.90
59301;DHT22;45073;52.740;6.784;2023-05-17T07:50:21;11.80;88.20
59301;DHT22;45073;52.740;6.784;2023-05-17T07:52:47;11.90;87.90
59301;DHT22;45073;52.740;6.784;2023-05-17T07:55:13;12.00;87.00
59301;DHT22;45073;52.740;6.784;2023-05-17T07:57:38;12.10;86.20
59301;DHT22;45073;52.740;6.784;2023-05-17T08:00:04;12.20;85.90
59301;DHT22;45073;52.740;6.784;2023-05-17T08:02:31;12.20;85.20
59301;DHT22;45073;52.740;6.784;2023-05-17T08:04:56;12.30;85.70
59301;DHT22;45073;52.740;6.784;2023-05-17T08:07:22;12.50;82.90
59301;DHT22;45073;52.740;6.784;2023-05-17T08:09:47;12.70;81.40
59301;DHT22;45073;52.740;6.784;2023-05-17T08:12:13;12.70;81.50
59301;DHT22;45073;52.740;6.784;2023-05-17T08:14:39;12.60;81.60
59301;DHT22;45073;52.740;6.784;2023-05-17T08:17:04;12.60;82.40
59301;DHT22;45073;52.740;6.784;2023-05-17T08:19:30;12.60;82.70
59301;DHT22;45073;52.740;6.784;2023-05-17T08:21:56;12.60;82.50
59301;DHT22;45073;52.740;6.784;2023-05-17T08:24:21;12.70;80.60
59301;DHT22;45073;52.740;6.784;2023-05-17T08:26:47;12.70;81.20
59301;DHT22;45073;52.740;6.784;2023-05-17T08:29:12;12.70;81.90
59301;DHT22;45073;52.740;6.784;2023-05-17T08:31:38;12.60;81.60
59301;DHT22;45073;52.740;6.784;2023-05-17T08:34:04;12.60;80.80
59301;DHT22;45073;52.740;6.784;2023-05-17T08:36:29;12.60;81.00
59301;DHT22;45073;52.740;6.784;2023-05-17T08:38:55;12.70;81.40
59301;DHT22;45073;52.740;6.784;2023-05-17T08:41:21;12.90;80.50
59301;DHT22;45073;52.740;6.784;2023-05-17T08:43:48;13.00;80.30
59301;DHT22;45073;52.740;6.784;2023-05-17T08:46:14;13.00;80.20
59301;DHT22;45073;52.740;6.784;2023-05-17T08:48:41;13.00;79.80
59301;DHT22;45073;52.740;6.784;2023-05-17T08:51:07;13.00;77.90
59301;DHT22;45073;52.740;6.784;2023-05-17T08:53:37;13.00;78.00
59301;DHT22;45073;52.740;6.784;2023-05-17T08:56:03;13.00;79.00
59301;DHT22;45073;52.740;6.784;2023-05-17T08:58:34;13.00;79.10
59301;DHT22;45073;52.740;6.784;2023-05-17T09:01:05;13.00;78.40
59301;DHT22;45073;52.740;6.784;2023-05-17T09:03:34;13.10;78.60
59301;DHT22;45073;52.740;6.784;2023-05-17T09:05:59;13.20;76.30
59301;DHT22;45073;52.740;6.784;2023-05-17T09:08:26;13.30;76.40
59301;DHT22;45073;52.740;6.784;2023-05-17T09:10:53;13.40;76.80
59301;DHT22;45073;52.740;6.784;2023-05-17T09:13:18;13.50;77.30
59301;DHT22;45073;52.740;6.784;2023-05-17T09:15:47;13.60;76.80
59301;DHT22;45073;52.740;6.784;2023-05-17T09:18:13;13.60;76.70
59301;DHT22;45073;52.740;6.784;2023-05-17T09:20:39;13.80;75.40
59301;DHT22;45073;52.740;6.784;2023-05-17T09:23:07;13.90;74.80
59301;DHT22;45073;52.740;6.784;2023-05-17T09:25:46;13.90;75.50
59301;DHT22;45073;52.740;6.784;2023-05-17T09:28:12;13.80;75.40
59301;DHT22;45073;52.740;6.784;2023-05-17T09:30:38;13.90;75.70
59301;DHT22;45073;52.740;6.784;2023-05-17T09:33:08;13.90;73.60
59301;DHT22;45073;52.740;6.784;2023-05-17T09:35:36;13.90;73.70
59301;DHT22;45073;52.740;6.784;2023-05-17T09:38:12;13.90;74.30
59301;DHT22;45073;52.740;6.784;2023-05-17T09:40:39;14.00;72.80
59301;DHT22;45073;52.740;6.784;2023-05-17T09:43:05;14.10;72.20
59301;DHT22;45073;52.740;6.784;2023-05-17T09:45:32;14.00;72.70
59301;DHT22;45073;52.740;6.784;2023-05-17T09:50:35;14.20;71.70
59301;DHT22;45073;52.740;6.784;2023-05-17T09:53:00;14.20;72.70
59301;DHT22;45073;52.740;6.784;2023-05-17T09:55:26;14.40;70.90
59301;DHT22;45073;52.740;6.784;2023-05-17T09:57:52;14.40;70.90
59301;DHT22;45073;52.740;6.784;2023-05-17T10:00:20;14.50;71.20
59301;DHT22;45073;52.740;6.784;2023-05-17T10:02:47;14.50;71.00
59301;DHT22;45073;52.740;6.784;2023-05-17T10:05:15;14.60;70.40
59301;DHT22;45073;52.740;6.784;2023-05-17T10:07:41;14.70;70.70
59301;DHT22;45073;52.740;6.784;2023-05-17T10:10:07;14.90;71.00
59301;DHT22;45073;52.740;6.784;2023-05-17T10:12:33;15.10;69.20
59301;DHT22;45073;52.740;6.784;2023-05-17T10:15:01;15.20;68.70
59301;DHT22;45073;52.740;6.784;2023-05-17T10:17:27;15.20;67.90
59301;DHT22;45073;52.740;6.784;2023-05-17T10:19:55;15.20;67.90
59301;DHT22;45073;52.740;6.784;2023-05-17T10:22:21;15.10;68.40
59301;DHT22;45073;52.740;6.784;2023-05-17T10:24:48;15.10;68.20
59301;DHT22;45073;52.740;6.784;2023-05-17T10:27:14;15.10;68.40
59301;DHT22;45073;52.740;6.784;2023-05-17T10:29:41;15.20;69.70
59301;DHT22;45073;52.740;6.784;2023-05-17T10:32:07;15.30;70.30
59301;DHT22;45073;52.740;6.784;2023-05-17T10:34:35;15.40;70.20
59301;DHT22;45073;52.740;6.784;2023-05-17T10:37:02;15.50;69.20
59301;DHT22;45073;52.740;6.784;2023-05-17T10:39:28;15.50;68.20
59301;DHT22;45073;52.740;6.784;2023-05-17T10:41:56;15.50;68.10
59301;DHT22;45073;52.740;6.784;2023-05-17T10:44:22;15.60;68.20
59301;DHT22;45073;52.740;6.784;2023-05-17T10:46:55;15.70;68.90
59301;DHT22;45073;52.740;6.784;2023-05-17T10:49:25;15.90;66.50
59301;DHT22;45073;52.740;6.784;2023-05-17T10:51:55;15.90;65.70
59301;DHT22;45073;52.740;6.784;2023-05-17T10:54:36;15.90;65.40
59301;DHT22;45073;52.740;6.784;2023-05-17T10:57:05;15.90;65.20
59301;DHT22;45073;52.740;6.784;2023-05-17T10:59:31;15.80;66.70
59301;DHT22;45073;52.740;6.784;2023-05-17T11:04:42;15.80;66.40
59301;DHT22;45073;52.740;6.784;2023-05-17T11:09:45;16.00;67.30
59301;DHT22;45073;52.740;6.784;2023-05-17T11:12:14;16.20;68.00
59301;DHT22;45073;52.740;6.784;2023-05-17T11:17:17;16.60;64.20
59301;DHT22;45073;52.740;6.784;2023-05-17T11:22:29;16.90;64.10
59301;DHT22;45073;52.740;6.784;2023-05-17T11:25:00;17.00;63.20
59301;DHT22;45073;52.740;6.784;2023-05-17T11:27:27;17.00;62.80
59301;DHT22;45073;52.740;6.784;2023-05-17T11:30:07;17.10;62.30
59301;DHT22;45073;52.740;6.784;2023-05-17T11:32:33;17.20;62.20
59301;DHT22;45073;52.740;6.784;2023-05-17T11:34:59;17.10;61.90
59301;DHT22;45073;52.740;6.784;2023-05-17T11:37:26;17.10;62.10
59301;DHT22;45073;52.740;6.784;2023-05-17T11:40:06;17.20;62.30
59301;DHT22;45073;52.740;6.784;2023-05-17T11:42:35;17.40;61.70
59301;DHT22;45073;52.740;6.784;2023-05-17T11:45:02;17.60;61.50
59301;DHT22;45073;52.740;6.784;2023-05-17T11:47:28;17.70;61.80
59301;DHT22;45073;52.740;6.784;2023-05-17T11:49:55;17.90;60.80
59301;DHT22;45073;52.740;6.784;2023-05-17T11:52:24;18.00;60.70
59301;DHT22;45073;52.740;6.784;2023-05-17T11:54:51;18.10;59.80
59301;DHT22;45073;52.740;6.784;2023-05-17T11:57:18;18.00;59.60
59301;DHT22;45073;52.740;6.784;2023-05-17T11:59:46;18.00;59.60
59301;DHT22;45073;52.740;6.784;2023-05-17T12:02:30;18.10;59.50
59301;DHT22;45073;52.740;6.784;2023-05-17T12:04:56;18.20;59.70
59301;DHT22;45073;52.740;6.784;2023-05-17T12:07:22;18.40;59.90
59301;DHT22;45073;52.740;6.784;2023-05-17T12:09:48;18.50;59.70
59301;DHT22;45073;52.740;6.784;2023-05-17T12:12:15;18.40;58.90
59301;DHT22;45073;52.740;6.784;2023-05-17T12:14:44;18.40;57.90
59301;DHT22;45073;52.740;6.784;2023-05-17T12:17:12;18.50;59.20
59301;DHT22;45073;52.740;6.784;2023-05-17T12:19:40;18.70;57.40
59301;DHT22;45073;52.740;6.784;2023-05-17T12:22:07;18.80;57.80
59301;DHT22;45073;52.740;6.784;2023-05-17T12:24:38;19.00;58.50
59301;DHT22;45073;52.740;6.784;2023-05-17T12:27:04;19.10;58.50
59301;DHT22;45073;52.740;6.784;2023-05-17T12:29:30;19.20;57.80
59301;DHT22;45073;52.740;6.784;2023-05-17T12:31:56;19.20;57.60
59301;DHT22;45073;52.740;6.784;2023-05-17T12:34:22;19.30;57.10
59301;DHT22;45073;52.740;6.784;2023-05-17T12:36:48;19.40;56.40
59301;DHT22;45073;52.740;6.784;2023-05-17T12:39:14;19.50;55.20
59301;DHT22;45073;52.740;6.784;2023-05-17T12:41:42;19.60;55.10
59301;DHT22;45073;52.740;6.784;2023-05-17T12:44:09;19.60;55.40
59301;DHT22;45073;52.740;6.784;2023-05-17T12:46:35;19.70;55.60
59301;DHT22;45073;52.740;6.784;2023-05-17T12:49:05;19.70;55.20
59301;DHT22;45073;52.740;6.784;2023-05-17T12:51:40;19.80;55.90
59301;DHT22;45073;52.740;6.784;2023-05-17T12:54:07;19.90;54.90
59301;DHT22;45073;52.740;6.784;2023-05-17T12:56:32;20.00;54.80
59301;DHT22;45073;52.740;6.784;2023-05-17T12:59:13;20.00;54.80
59301;DHT22;45073;52.740;6.784;2023-05-17T13:01:52;20.30;55.70
59301;DHT22;45073;52.740;6.784;2023-05-17T13:04:23;20.40;54.60
59301;DHT22;45073;52.740;6.784;2023-05-17T13:06:57;20.40;54.50
59301;DHT22;45073;52.740;6.784;2023-05-17T13:09:25;20.40;53.50
59301;DHT22;45073;52.740;6.784;2023-05-17T13:11:55;20.30;53.80
59301;DHT22;45073;52.740;6.784;2023-05-17T13:16:59;20.70;54.10
59301;DHT22;45073;52.740;6.784;2023-05-17T13:19:25;20.70;53.30
59301;DHT22;45073;52.740;6.784;2023-05-17T13:21:51;20.60;53.00
59301;DHT22;45073;52.740;6.784;2023-05-17T13:24:16;20.60;53.00
59301;DHT22;45073;52.740;6.784;2023-05-17T13:26:42;20.40;52.70
59301;DHT22;45073;52.740;6.784;2023-05-17T13:29:08;20.20;52.50
59301;DHT22;45073;52.740;6.784;2023-05-17T13:31:34;20.30;53.60
59301;DHT22;45073;52.740;6.784;2023-05-17T13:34:00;20.40;54.40
59301;DHT22;45073;52.740;6.784;2023-05-17T13:36:25;20.50;54.00
59301;DHT22;45073;52.740;6.784;2023-05-17T13:38:51;20.60;53.50
59301;DHT22;45073;52.740;6.784;2023-05-17T13:41:17;20.60;53.50
59301;DHT22;45073;52.740;6.784;2023-05-17T13:43:42;20.50;52.90
59301;DHT22;45073;52.740;6.784;2023-05-17T13:46:08;20.40;52.30
59301;DHT22;45073;52.740;6.784;2023-05-17T13:48:33;20.50;53.20
59301;DHT22;45073;52.740;6.784;2023-05-17T13:50:59;20.60;53.50
59301;DHT22;45073;52.740;6.784;2023-05-17T13:53:25;20.70;52.70
59301;DHT22;45073;52.740;6.784;2023-05-17T13:55:51;20.70;51.80
59301;DHT22;45073;52.740;6.784;2023-05-17T13:58:16;20.70;52.20
59301;DHT22;45073;52.740;6.784;2023-05-17T14:00:42;20.70;51.90
59301;DHT22;45073;52.740;6.784;2023-05-17T14:03:09;20.70;51.20
59301;DHT22;45073;52.740;6.784;2023-05-17T14:05:34;20.60;50.90
59301;DHT22;45073;52.740;6.784;2023-05-17T14:08:01;20.50;50.80
59301;DHT22;45073;52.740;6.784;2023-05-17T14:10:27;20.50;50.40
59301;DHT22;45073;52.740;6.784;2023-05-17T14:12:53;20.50;51.40
59301;DHT22;45073;52.740;6.784;2023-05-17T14:15:19;20.50;51.20
59301;DHT22;45073;52.740;6.784;2023-05-17T14:17:44;20.60;51.00
59301;DHT22;45073;52.740;6.784;2023-05-17T14:20:10;20.70;50.90
59301;DHT22;45073;52.740;6.784;2023-05-17T14:22:36;20.70;50.70
59301;DHT22;45073;52.740;6.784;2023-05-17T14:25:02;20.80;51.40
59301;DHT22;45073;52.740;6.784;2023-05-17T14:27:27;20.80;50.70
59301;DHT22;45073;52.740;6.784;2023-05-17T14:29:53;20.80;50.10
59301;DHT22;45073;52.740;6.784;2023-05-17T14:32:18;20.80;50.40
59301;DHT22;45073;52.740;6.784;2023-05-17T14:34:44;20.90;50.80
59301;DHT22;45073;52.740;6.784;2023-05-17T14:37:10;20.90;51.10
59301;DHT22;45073;52.740;6.784;2023-05-17T14:39:35;21.00;51.30
59301;DHT22;45073;52.740;6.784;2023-05-17T14:42:01;21.00;51.70
59301;DHT22;45073;52.740;6.784;2023-05-17T14:44:26;21.00;52.00
59301;DHT22;45073;52.740;6.784;2023-05-17T14:46:52;21.00;51.40
59301;DHT22;45073;52.740;6.784;2023-05-17T14:49:18;20.80;50.20
59301;DHT22;45073;52.740;6.784;2023-05-17T14:51:43;20.60;50.30
59301;DHT22;45073;52.740;6.784;2023-05-17T14:54:09;20.50;50.10
59301;DHT22;45073;52.740;6.784;2023-05-17T14:56:35;20.30;50.70
59301;DHT22;45073;52.740;6.784;2023-05-17T14:59:01;20.30;51.20
59301;DHT22;45073;52.740;6.784;2023-05-17T15:01:26;20.30;50.80
59301;DHT22;45073;52.740;6.784;2023-05-17T15:03:52;20.20;50.90
59301;DHT22;45073;52.740;6.784;2023-05-17T15:06:18;20.10;50.60
59301;DHT22;45073;52.740;6.784;2023-05-17T15:08:49;19.90;51.30
59301;DHT22;45073;52.740;6.784;2023-05-17T15:11:15;19.90;50.70
59301;DHT22;45073;52.740;6.784;2023-05-17T15:13:40;19.70;50.50
59301;DHT22;45073;52.740;6.784;2023-05-17T15:16:07;19.80;51.80
59301;DHT22;45073;52.740;6.784;2023-05-17T15:18:32;19.60;51.10
59301;DHT22;45073;52.740;6.784;2023-05-17T15:20:58;19.60;51.40
59301;DHT22;45073;52.740;6.784;2023-05-17T15:23:24;19.50;51.70
59301;DHT22;45073;52.740;6.784;2023-05-17T15:25:49;19.50;51.50
59301;DHT22;45073;52.740;6.784;2023-05-17T15:28:15;19.40;51.70
59301;DHT22;45073;52.740;6.784;2023-05-17T15:30:44;19.40;51.50
59301;DHT22;45073;52.740;6.784;2023-05-17T15:33:09;19.40;52.10
59301;DHT22;45073;52.740;6.784;2023-05-17T15:35:35;19.30;51.70
59301;DHT22;45073;52.740;6.784;2023-05-17T15:38:04;19.10;51.70
59301;DHT22;45073;52.740;6.784;2023-05-17T15:40:30;18.90;51.30
59301;DHT22;45073;52.740;6.784;2023-05-17T15:42:56;18.70;51.50
59301;DHT22;45073;52.740;6.784;2023-05-17T15:45:21;18.60;51.90
59301;DHT22;45073;52.740;6.784;2023-05-17T15:47:47;18.50;52.60
59301;DHT22;45073;52.740;6.784;2023-05-17T15:50:13;18.50;52.90
59301;DHT22;45073;52.740;6.784;2023-05-17T15:52:39;18.50;52.40
59301;DHT22;45073;52.740;6.784;2023-05-17T15:55:05;18.50;52.70
59301;DHT22;45073;52.740;6.784;2023-05-17T15:57:31;18.40;52.40